Time;durP1;ratioP1;P1;durP2;ratioP2;P2;SDS_P1;SDS_P2;PMS_P1;PMS_P2;Temp;Humidity;BMP_temperature;BMP_pressure;BME280_temperature;BME280_humidity;BME280_pressure;Samples;Min_cycle;Max_cycle;Signal;HPM_P1;HPM_P2
2022/04/08 00:00:24;;;;;;;11.27;2.22;;;;;;;;;;5077359;28;20458;-90
2022/04/08 00:03:12;;;;;;;10.30;1.75;;;5.40;99.90;;;;;;5091831;28;20081;-92
2022/04/08 00:05:58;;;;;;;11.10;1.58;;;;;;;;;;5091842;28;20082;-89
2022/04/08 00:08:46;;;;;;;7.95;1.92;;;5.40;99.90;;;;;;5091416;28;20062;-89
2022/04/08 00:11:31;;;;;;;10.68;2.22;;;;;;;;;;5063130;28;20128;-91
2022/04/08 00:14:23;;;;;;;7.80;1.70;;;;;;;;;;5091804;28;20112;-89
2022/04/08 00:17:08;;;;;;;5.75;1.50;;;;;;;;;;5078648;28;20086;-89
2022/04/08 00:19:52;;;;;;;6.13;1.92;;;;;;;;;;5091913;28;20043;-92
2022/04/08 00:22:43;;;;;;;7.38;1.48;;;5.30;99.90;;;;;;5092022;28;20093;-90
2022/04/08 00:25:28;;;;;;;8.93;1.13;;;;;;;;;;5092156;28;20126;-89
2022/04/08 00:28:13;;;;;;;7.50;1.48;;;;;;;;;;5091900;28;20117;-91
2022/04/08 00:30:58;;;;;;;8.18;1.42;;;;;;;;;;5091754;28;20035;-90
2022/04/08 00:33:43;;;;;;;8.98;1.48;;;;;;;;;;5092560;28;20574;-89
2022/04/08 00:36:27;;;;;;;6.82;1.40;;;;;;;;;;5095084;28;20055;-91
2022/04/08 00:39:14;;;;;;;12.32;2.00;;;;;;;;;;5095314;28;20416;-92
2022/04/08 00:42:02;;;;;;;5.88;1.25;;;5.20;99.90;;;;;;5095215;28;20442;-87
2022/04/08 00:44:49;;;;;;;8.60;1.33;;;5.20;99.90;;;;;;5095099;28;20074;-89
2022/04/08 00:47:35;;;;;;;3.58;0.90;;;;;;;;;;5080471;28;20136;-91
2022/04/08 00:50:22;;;;;;;4.05;0.88;;;;;;;;;;5094809;28;20128;-90
2022/04/08 00:53:09;;;;;;;3.53;1.02;;;;;;;;;;5081409;28;20089;-91
2022/04/08 00:55:55;;;;;;;3.70;1.05;;;4.80;99.90;;;;;;5095357;28;20487;-91
2022/04/08 00:58:40;;;;;;;7.47;1.02;;;;;;;;;;5080494;28;20046;-91
2022/04/08 01:01:25;;;;;;;7.32;1.10;;;;;;;;;;5094559;28;20077;-91
2022/04/08 01:04:10;;;;;;;3.42;1.10;;;;;;;;;;5094830;28;20031;-89
2022/04/08 01:06:57;;;;;;;4.45;1.08;;;;;;;;;;5094721;28;20479;-90
2022/04/08 01:09:45;;;;;;;9.95;1.50;;;4.60;99.90;;;;;;5054190;28;20103;-89
2022/04/08 01:12:29;;;;;;;5.50;2.22;;;;;;;;;;5054015;28;20082;-89
2022/04/08 01:15:14;;;;;;;5.65;1.02;;;;;;;;;;5054213;28;20044;-90
2022/04/08 01:17:59;;;;;;;8.43;1.35;;;;;;;;;;5053840;28;20048;-90
2022/04/08 01:20:43;;;;;;;8.55;2.22;;;;;;;;;;5054096;28;20060;-89
2022/04/08 01:23:29;;;;;;;7.03;1.08;;;4.40;99.90;;;;;;5053901;28;20083;-89
2022/04/08 01:26:14;;;;;;;8.73;1.20;;;4.20;99.90;;;;;;5054167;28;20043;-90
2022/04/08 01:28:59;;;;;;;4.07;1.08;;;;;;;;;;5054126;28;20048;-90
2022/04/08 01:31:45;;;;;;;4.75;1.27;;;;;;;;;;5053819;28;20083;-90
2022/04/08 01:34:30;;;;;;;5.07;1.23;;;;;;;;;;5053818;28;20492;-91
2022/04/08 01:37:17;;;;;;;6.50;1.73;;;4.00;99.90;;;;;;5054366;28;20091;-91
2022/04/08 01:40:02;;;;;;;3.88;1.63;;;4.00;99.90;;;;;;5054227;28;20048;-89
2022/04/08 01:42:49;;;;;;;7.47;1.27;;;4.00;99.90;;;;;;5054236;28;20385;-90
2022/04/08 01:45:36;;;;;;;7.15;1.52;;;;;;;;;;5053475;28;20044;-90
2022/04/08 01:48:21;;;;;;;5.45;1.20;;;;;;;;;;5054361;28;20086;-92
2022/04/08 01:51:05;;;;;;;4.23;1.20;;;;;;;;;;5054008;28;20032;-90
2022/04/08 01:53:50;;;;;;;6.70;1.60;;;3.90;99.90;;;;;;5053858;28;20036;-90
2022/04/08 01:56:35;;;;;;;7.13;1.37;;;;;;;;;;5053354;28;20063;-91
2022/04/08 01:59:20;;;;;;;8.63;1.47;;;;;;;;;;5039663;28;20051;-90
2022/04/08 02:02:05;;;;;;;6.53;1.30;;;;;;;;;;5053556;28;20058;-90
2022/04/08 02:04:50;;;;;;;8.18;2.30;;;;;;;;;;5053498;28;20044;-89
2022/04/08 02:07:35;;;;;;;10.30;1.70;;;;;;;;;;5060776;28;20059;-91
2022/04/08 02:10:20;;;;;;;8.85;1.92;;;;;;;;;;5093611;28;20082;-90
2022/04/08 02:13:05;;;;;;;8.65;1.80;;;;;;;;;;5093828;28;20567;-89
2022/04/08 02:15:49;;;;;;;10.98;1.98;;;;;;;;;;5093465;28;20038;-90
2022/04/08 02:18:34;;;;;;;5.57;1.55;;;;;;;;;;5093268;28;20472;-89
2022/04/08 02:21:19;;;;;;;7.57;1.38;;;;;;;;;;5093535;28;20088;-89
2022/04/08 02:24:04;;;;;;;8.05;2.00;;;;;;;;;;5093591;28;20039;-90
2022/04/08 02:26:49;;;;;;;9.73;1.45;;;;;;;;;;5078857;28;20104;-89
2022/04/08 02:29:34;;;;;;;6.70;1.88;;;;;;;;;;5092856;28;20039;-89
2022/04/08 02:32:18;;;;;;;4.97;1.73;;;;;;;;;;5078909;28;20039;-89
2022/04/08 02:35:04;;;;;;;8.38;1.73;;;;;;;;;;5092907;28;20404;-89
2022/04/08 02:37:49;;;;;;;10.63;1.60;;;;;;;;;;5092380;28;20031;-88
2022/04/08 02:40:33;;;;;;;11.63;2.40;;;;;;;;;;5092749;28;20062;-88
2022/04/08 02:43:18;;;;;;;8.07;2.08;;;;;;;;;;5092712;28;20074;-88
2022/04/08 02:46:03;;;;;;;8.75;2.05;;;;;;;;;;5092273;28;20097;-88
2022/04/08 02:48:50;;;;;;;5.85;1.50;;;;;;;;;;5091946;28;20043;-89
2022/04/08 02:51:34;;;;;;;9.48;2.03;;;;;;;;;;5092069;28;20149;-88
2022/04/08 02:54:19;;;;;;;4.00;1.67;;;;;;;;;;5092134;28;20503;-88
2022/04/08 02:57:03;;;;;;;7.77;1.30;;;;;;;;;;5091467;28;20412;-88
2022/04/08 02:59:50;;;;;;;6.27;1.50;;;;;;;;;;5077451;28;20086;-87
2022/04/08 03:02:35;;;;;;;8.55;1.70;;;;;;;;;;5091685;28;20031;-87
2022/04/08 03:05:20;;;;;;;10.63;1.70;;;;;;;;;;5077940;28;20086;-87
2022/04/08 03:08:05;;;;;;;10.50;1.60;;;;;;;;;;5093008;28;20131;-88
2022/04/08 03:10:52;;;;;;;9.17;1.73;;;;;;;;;;5091803;28;20035;-88
2022/04/08 03:13:37;;;;;;;10.00;1.73;;;;;;;;;;5092573;28;20047;-89
2022/04/08 03:16:23;;;;;;;10.27;1.97;;;3.20;99.90;;;;;;5077598;28;20066;-88
2022/04/08 03:19:08;;;;;;;6.93;1.37;;;;;;;;;;5091793;28;20128;-88
2022/04/08 03:21:53;;;;;;;9.07;1.93;;;;;;;;;;5092523;28;20344;-89
2022/04/08 03:24:37;;;;;;;9.05;2.22;;;;;;;;;;5091506;28;20097;-88
2022/04/08 03:27:22;;;;;;;14.68;3.60;;;;;;;;;;5091830;28;20116;-89
2022/04/08 03:30:06;;;;;;;10.68;1.52;;;;;;;;;;5091806;28;20165;-88
2022/04/08 03:32:51;;;;;;;18.33;2.93;;;;;;;;;;5091328;28;20169;-88
2022/04/08 03:35:38;;;;;;;22.20;2.97;;;3.20;99.90;;;;;;5091404;28;20035;-90
2022/04/08 03:38:23;;;;;;;13.88;1.80;;;;;;;;;;5077365;28;20047;-88
2022/04/08 03:41:07;;;;;;;14.38;1.95;;;;;;;;;;5091587;28;20035;-88
2022/04/08 03:43:52;;;;;;;14.33;2.00;;;;;;;;;;5077301;28;20523;-88
2022/04/08 03:46:36;;;;;;;8.88;1.80;;;;;;;;;;5077525;28;20039;-89
2022/04/08 03:49:21;;;;;;;11.80;2.97;;;;;;;;;;5091551;28;20043;-88
2022/04/08 03:52:08;;;;;;;13.17;2.03;;;3.30;99.90;;;;;;5091835;28;20061;-89
2022/04/08 03:54:55;;;;;;;13.17;2.20;;;;;;;;;;5091186;28;20039;-88
2022/04/08 03:57:39;;;;;;;10.57;2.90;;;;;;;;;;5091407;28;20046;-90
2022/04/08 04:00:24;;;;;;;16.63;2.83;;;;;;;;;;5091371;28;20094;-87
2022/04/08 04:03:09;;;;;;;7.60;1.47;;;;;;;;;;5077121;28;20043;-88
2022/04/08 04:05:53;;;;;;;7.13;1.50;;;;;;;;;;5091238;28;20039;-87
2022/04/08 04:08:38;;;;;;;4.63;1.20;;;;;;;;;;5079241;28;20075;-86
2022/04/08 04:11:23;;;;;;;7.67;1.20;;;;;;;;;;5097885;28;20031;-88
2022/04/08 04:14:07;;;;;;;2.73;1.10;;;;;;;;;;5097971;28;20039;-89
2022/04/08 04:16:52;;;;;;;4.77;1.30;;;;;;;;;;5098418;28;20054;-88
2022/04/08 04:19:37;;;;;;;3.57;1.00;;;;;;;;;;5099217;28;20127;-88
2022/04/08 04:22:21;;;;;;;4.40;1.10;;;;;;;;;;5099412;28;20035;-88
2022/04/08 04:25:06;;;;;;;2.73;1.07;;;2.90;99.90;;;;;;5096451;28;20097;-87
2022/04/08 04:27:51;;;;;;;6.57;1.30;;;;;;;;;;5082782;28;20039;-87
2022/04/08 04:30:36;;;;;;;3.73;1.50;;;;;;;;;;5096819;28;20503;-88
2022/04/08 04:33:20;;;;;;;2.73;0.93;;;;;;;;;;5095037;28;20112;-87
2022/04/08 04:36:05;;;;;;;6.00;1.30;;;;;;;;;;5080323;28;20053;-88
2022/04/08 04:38:49;;;;;;;4.97;1.20;;;;;;;;;;5080520;28;20047;-87
2022/04/08 04:41:34;;;;;;;3.27;1.20;;;;;;;;;;5096139;28;20047;-88
2022/04/08 04:44:21;;;;;;;2.63;1.20;;;2.70;99.90;;;;;;5096405;28;20035;-87
2022/04/08 04:47:06;;;;;;;4.50;1.10;;;2.60;99.90;;;;;;5080951;28;20101;-88
2022/04/08 04:49:50;;;;;;;3.87;1.10;;;;;;;;;;5081259;28;20075;-88
2022/04/08 04:52:35;;;;;;;5.57;1.10;;;;;;;;;;5094997;28;20392;-88
2022/04/08 04:55:20;;;;;;;3.00;1.03;;;;;;;;;;5094675;28;20392;-87
2022/04/08 04:58:04;;;;;;;2.77;1.70;;;;;;;;;;5079602;28;20457;-87
2022/04/08 05:00:49;;;;;;;13.43;2.13;;;;;;;;;;5093548;28;20063;-90
2022/04/08 05:03:33;;;;;;;3.73;1.40;;;;;;;;;;5093078;28;20549;-89
2022/04/08 05:06:18;;;;;;;5.20;1.53;;;;;;;;;;5079298;28;20039;-88
2022/04/08 05:09:05;;;;;;;5.97;1.37;;;2.60;99.90;;;;;;5093750;28;20088;-88
2022/04/08 05:11:50;;;;;;;5.97;1.73;;;;;;;;;;5093833;28;20102;-89
2022/04/08 05:14:35;;;;;;;6.13;1.50;;;;;;;;;;5094760;28;20038;-87
2022/04/08 05:17:22;;;;;;;6.60;1.50;;;;;;;;;;5093707;28;20077;-87
2022/04/08 05:20:09;;;;;;;7.00;3.00;;;2.90;99.90;;;;;;5078815;28;20082;-88
2022/04/08 05:22:54;;;;;;;7.03;2.33;;;;;;;;;;5094412;28;20407;-88
2022/04/08 05:25:39;;;;;;;2.97;1.40;;;;;;;;;;5093826;28;20078;-89
2022/04/08 05:28:24;;;;;;;5.80;1.40;;;;;;;;;;5079675;28;20065;-89
2022/04/08 05:31:08;;;;;;;7.33;1.97;;;;;;;;;;5079583;28;20116;-90
2022/04/08 05:33:55;;;;;;;4.43;1.70;;;2.10;99.90;;;;;;5093692;28;20134;-90
2022/04/08 05:36:40;;;;;;;6.10;1.80;;;;;;;;;;5079540;28;20582;-90
2022/04/08 05:39:25;;;;;;;9.40;1.70;;;;;;;;;;5093482;28;20141;-89
2022/04/08 05:42:09;;;;;;;3.47;1.40;;;;;;;;;;5093348;28;20043;-89
2022/04/08 05:44:54;;;;;;;6.53;1.83;;;;;;;;;;5093244;28;20043;-88
2022/04/08 05:47:39;;;;;;;6.87;3.27;;;3.50;99.90;;;;;;5093732;28;20077;-90
2022/04/08 05:50:23;;;;;;;10.23;1.70;;;;;;;;;;5093547;28;20047;-88
2022/04/08 05:53:08;;;;;;;7.67;1.90;;;;;;;;;;5078925;28;20097;-88
2022/04/08 05:55:56;;;;;;;7.90;2.17;;;3.50;99.90;;;;;;5079293;28;20043;-89
2022/04/08 05:58:40;;;;;;;7.67;2.00;;;;;;;;;;5093340;28;20132;-89
2022/04/08 06:01:25;;;;;;;7.10;1.60;;;;;;;;;;5093657;28;20442;-88
2022/04/08 06:04:09;;;;;;;7.20;1.70;;;;;;;;;;5093064;28;20400;-90
2022/04/08 06:06:56;;;;;;;4.77;1.77;;;3.40;99.90;;;;;;5094280;28;20039;-87
2022/04/08 06:09:41;;;;;;;6.93;1.67;;;;;;;;;;5092624;28;20113;-86
2022/04/08 06:12:25;;;;;;;5.03;1.50;;;;;;;;;;5093433;28;20522;-87
2022/04/08 06:15:10;;;;;;;4.33;1.50;;;;;;;;;;5092726;28;20468;-86
2022/04/08 06:17:55;;;;;;;7.85;1.85;;;4.00;99.90;;;;;;5092905;28;20039;-89
2022/04/08 06:20:40;;;;;;;7.57;1.60;;;;;;;;;;5092934;28;20082;-88
2022/04/08 06:23:25;;;;;;;4.25;1.40;;;;;;;;;;5094166;28;20096;-88
2022/04/08 06:26:09;;;;;;;4.10;1.60;;;;;;;;;;5077965;28;20078;-88
2022/04/08 06:28:54;;;;;;;4.63;1.77;;;;;;;;;;5091928;28;20050;-89
2022/04/08 06:31:39;;;;;;;7.28;1.88;;;;;;;;;;5091260;28;20061;-86
2022/04/08 06:34:23;;;;;;;2.60;1.20;;;;;;;;;;5077339;28;20043;-88
2022/04/08 06:37:08;;;;;;;2.57;1.47;;;;;;;;;;5078527;28;20047;-89
2022/04/08 06:39:52;;;;;;;6.93;2.00;;;;;;;;;;5092681;28;20533;-88
2022/04/08 06:42:40;;;;;;;6.97;1.83;;;4.40;99.90;;;;;;5092089;28;20507;-88
2022/04/08 06:45:26;;;;;;;4.45;1.48;;;;;;;;;;5091922;28;20047;-87
2022/04/08 06:48:11;;;;;;;4.00;1.60;;;;;;;;;;5078014;28;20392;-88
2022/04/08 06:50:58;;;;;;;3.97;1.40;;;;;;;;;;5078734;28;20039;-88
2022/04/08 06:53:42;;;;;;;4.22;1.55;;;;;;;;;;5078261;28;20039;-85
2022/04/08 06:56:28;;;;;;;5.37;1.70;;;;;;;;;;5092805;28;20119;-88
2022/04/08 06:59:13;;;;;;;3.05;1.40;;;;;;;;;;5078147;28;20138;-89
2022/04/08 07:01:57;;;;;;;4.68;1.73;;;;;;;;;;5092439;28;20043;-87
2022/04/08 07:04:43;;;;;;;4.07;1.55;;;;;;;;;;5078517;28;20097;-87
2022/04/08 07:07:38;;;;;;;3.28;1.10;;;4.80;99.90;;;;;;5091833;28;20492;-87
2022/04/08 07:10:22;;;;;;;6.10;1.63;;;;;;;;;;5091465;28;20082;-84
2022/04/08 07:13:07;;;;;;;7.43;1.55;;;4.90;99.90;;;;;;5091426;28;20047;-85
2022/04/08 07:15:52;;;;;;;7.18;2.35;;;;;;;;;;5091782;28;20078;-84
2022/04/08 07:18:36;;;;;;;4.97;1.83;;;;;;;;;;5077499;28;20071;-86
2022/04/08 07:21:22;;;;;;;8.32;1.48;;;;;;;;;;5092516;28;20078;-87
2022/04/08 07:24:06;;;;;;;5.00;1.70;;;;;;;;;;5077396;28;20495;-86
2022/04/08 07:26:52;;;;;;;4.80;1.55;;;;;;;;;;5092963;28;20042;-85
2022/04/08 07:29:37;;;;;;;7.20;1.60;;;;;;;;;;5091898;28;20047;-85
2022/04/08 07:32:21;;;;;;;3.30;1.40;;;;;;;;;;5095137;28;20047;-90
2022/04/08 07:35:07;;;;;;;6.85;1.70;;;5.60;99.90;;;;;;5092701;28;20494;-86
2022/04/08 07:37:53;;;;;;;10.73;2.20;;;;;;;;;;5077813;28;20503;-86
2022/04/08 07:40:38;;;;;;;4.55;1.55;;;;;;;;;;5078031;28;20043;-86
2022/04/08 07:43:23;;;;;;;8.48;1.63;;;;;;;;;;5093100;28;20461;-88
2022/04/08 07:46:07;;;;;;;6.57;1.50;;;;;;;;;;5095947;28;20086;-89
2022/04/08 07:48:52;;;;;;;4.07;1.38;;;;;;;;;;5097025;28;20118;-89
2022/04/08 07:51:36;;;;;;;4.78;1.50;;;;;;;;;;5095652;28;20115;-87
2022/04/08 07:54:24;;;;;;;8.25;1.85;;;;;;;;;;5094958;28;20158;-86
2022/04/08 07:57:09;;;;;;;4.40;1.58;;;;;;;;;;5095520;28;20162;-87
2022/04/08 07:59:54;;;;;;;6.50;1.65;;;;;;;;;;5081571;28;20464;-87
2022/04/08 08:02:39;;;;;;;9.95;2.63;;;;;;;;;;5097002;28;20450;-87
2022/04/08 08:05:24;;;;;;;6.50;2.05;;;;;;;;;;5097930;28;20423;-86
2022/04/08 08:08:09;;;;;;;6.47;1.58;;;;;;;;;;5095374;28;20168;-87
2022/04/08 08:10:55;;;;;;;6.35;1.80;;;;;;;;;;5095365;28;20545;-87
2022/04/08 08:13:42;;;;;;;7.63;1.88;;;;;;;;;;5095173;28;20035;-88
2022/04/08 08:16:27;;;;;;;7.28;1.77;;;;;;;;;;5094932;28;20039;-88
2022/04/08 08:19:12;;;;;;;6.95;2.00;;;;;;;;;;5080836;28;20043;-88
2022/04/08 08:21:57;;;;;;;8.15;1.98;;;;;;;;;;5095029;28;20046;-88
2022/04/08 08:24:41;;;;;;;10.63;2.83;;;;;;;;;;5094809;28;20032;-87
2022/04/08 08:27:26;;;;;;;4.82;1.92;;;;;;;;;;5094621;28;20043;-87
2022/04/08 08:30:13;;;;;;;5.00;2.20;;;7.00;99.90;;;;;;5094978;28;20123;-89
2022/04/08 08:33:04;;;;;;;9.07;2.38;;;;;;;;;;5094821;28;20051;-88
2022/04/08 08:35:49;;;;;;;9.48;2.13;;;;;;;;;;5095031;28;20039;-89
2022/04/08 08:38:36;;;;;;;13.82;2.10;;;;;;;;;;5094664;28;20038;-89
2022/04/08 08:41:23;;;;;;;10.10;2.33;;;7.30;99.90;;;;;;5092744;28;20400;-87
2022/04/08 08:44:08;;;;;;;7.00;2.22;;;;;;;;;;5093897;28;20085;-88
2022/04/08 08:46:53;;;;;;;7.20;1.75;;;;;;;;;;5093892;28;20101;-87
2022/04/08 08:49:44;;;;;;;7.03;2.03;;;7.50;99.90;;;;;;5093219;28;20156;-89
2022/04/08 08:52:29;;;;;;;8.02;1.75;;;;;;;;;;5093238;28;20042;-87
2022/04/08 08:55:14;;;;;;;8.55;1.98;;;;;;;;;;5092539;28;20035;-88
2022/04/08 08:57:59;;;;;;;4.38;1.73;;;;;;;;;;5079421;28;20495;-89
2022/04/08 09:00:44;;;;;;;4.82;1.65;;;;;;;;;;5093536;28;20154;-89
2022/04/08 09:03:34;;;;;;;5.32;1.88;;;7.50;99.90;;;;;;5080057;28;20138;-91
2022/04/08 09:06:21;;;;;;;4.45;1.63;;;;;;;;;;5079318;28;20388;-88
2022/04/08 09:09:06;;;;;;;5.50;1.67;;;;;;;;;;5096210;28;20117;-87
2022/04/08 09:11:51;;;;;;;6.25;1.60;;;;;;;;;;5093441;28;20400;-89
2022/04/08 09:14:36;;;;;;;9.27;1.70;;;;;;;;;;5096369;28;20047;-94
2022/04/08 09:17:22;;;;;;;8.02;2.78;;;7.50;99.90;;;;;;5095811;28;20109;-95
2022/04/08 09:20:07;;;;;;;4.07;1.17;;;;;;;;;;5092986;28;20488;-86
2022/04/08 09:22:55;;;;;;;6.40;2.15;;;7.30;99.90;;;;;;5093176;28;20081;-85
2022/04/08 09:25:41;;;;;;;9.52;2.22;;;7.20;99.90;;;;;;5078370;28;20074;-86
2022/04/08 09:28:25;;;;;;;6.63;1.73;;;;;;;;;;5092544;28;20503;-86
2022/04/08 09:31:18;;;;;;;11.20;2.92;;;7.90;99.90;;;;;;5093780;28;20039;-86
2022/04/08 09:34:13;;;;;;;11.02;2.40;;;7.60;99.90;;;;;;5092765;28;20495;-86
2022/04/08 09:37:29;;;;;;;7.05;1.75;;;7.60;99.90;;;;;;5093161;28;20034;-94
2022/04/08 09:40:14;;;;;;;8.10;2.40;;;;;;;;;;5079785;28;20090;-89
2022/04/08 09:42:58;;;;;;;11.00;2.33;;;;;;;;;;5079588;28;20070;-90
2022/04/08 09:45:44;;;;;;;7.05;2.05;;;;;;;;;;5093272;28;20078;-91
2022/04/08 09:48:29;;;;;;;5.32;2.10;;;;;;;;;;5079239;28;20062;-90
2022/04/08 09:51:37;;;;;;;9.02;2.08;;;8.70;99.90;;;;;;5079506;28;20039;-88
2022/04/08 09:54:22;;;;;;;6.97;1.80;;;;;;;;;;5092803;28;20408;-89
2022/04/08 09:57:11;;;;;;;9.48;2.08;;;9.00;99.90;;;;;;5092359;28;20035;-89
2022/04/08 10:00:02;;;;;;;6.90;1.80;;;8.90;99.90;;;;;;5092152;28;20540;-88
2022/04/08 10:02:49;;;;;;;6.45;2.03;;;8.60;99.90;;;;;;5092058;28;20038;-88
2022/04/08 10:05:34;;;;;;;8.52;1.45;;;;;;;;;;5091758;28;20071;-87
2022/04/08 10:08:19;;;;;;;7.53;2.15;;;;;;;;;;5092150;28;20566;-88
2022/04/08 10:11:14;;;;;;;8.98;1.60;;;9.00;99.90;;;;;;5092849;28;20055;-89
2022/04/08 10:14:17;;;;;;;5.15;1.55;;;;;;;;;;5092324;28;20035;-89
2022/04/08 10:17:02;;;;;;;4.97;1.75;;;9.40;99.90;;;;;;5092593;28;20039;-86
2022/04/08 10:19:47;;;;;;;7.13;1.95;;;;;;;;;;5091984;28;20673;-88
2022/04/08 10:22:41;;;;;;;6.43;1.80;;;9.50;99.90;;;;;;5092338;28;20043;-88
2022/04/08 10:25:35;;;;;;;7.05;1.65;;;;;;;;;;5092687;28;20034;-87
2022/04/08 10:28:19;;;;;;;4.78;1.40;;;;;;;;;;5092916;28;20039;-89
2022/04/08 10:31:22;;;;;;;6.95;1.40;;;9.40;99.90;;;;;;5093021;28;20039;-88
2022/04/08 10:34:07;;;;;;;6.30;1.48;;;;;;;;;;5093038;28;20120;-88
2022/04/08 10:36:52;;;;;;;6.28;1.70;;;;;;;;;;5099176;28;20047;-87
2022/04/08 10:39:42;;;;;;;107.28;15.55;;;;;;;;;;5105349;28;20073;-89
2022/04/08 10:42:28;;;;;;;95.03;14.18;;;;;;;;;;5098795;28;20039;-89
2022/04/08 10:45:14;;;;;;;5.82;2.38;;;9.20;99.90;;;;;;5102094;28;20038;-89
2022/04/08 10:48:13;;;;;;;17.17;2.78;;;9.40;99.90;;;;;;5105288;28;20030;-87
2022/04/08 10:51:14;;;;;;;10.68;1.95;;;9.30;99.90;;;;;;5096155;28;20043;-87
2022/04/08 10:54:15;;;;;;;7.97;2.00;;;9.20;99.90;;;;;;5094886;28;20487;-88
2022/04/08 10:56:59;;;;;;;8.30;1.63;;;;;;;;;;5092574;28;20070;-89
2022/04/08 10:59:52;;;;;;;8.18;2.13;;;9.40;99.90;;;;;;5093051;28;20093;-87
2022/04/08 11:02:43;;;;;;;13.90;2.45;;;9.60;99.90;;;;;;5094465;28;20082;-88
2022/04/08 11:05:27;;;;;;;7.80;1.90;;;;;;;;;;5093975;28;20539;-88
2022/04/08 11:08:14;;;;;;;6.15;1.60;;;9.90;99.90;;;;;;5093916;28;20508;-87
2022/04/08 11:11:02;;;;;;;3.30;1.75;;;10.00;99.90;;;;;;5080649;28;20063;-88
2022/04/08 11:13:55;;;;;;;5.65;1.60;;;10.20;99.90;;;;;;5091702;28;20043;-89
2022/04/08 11:16:41;;;;;;;9.00;1.80;;;10.30;99.90;;;;;;5092443;28;20039;-92
2022/04/08 11:19:27;;;;;;;5.10;1.50;;;;;;;;;;5091350;28;20044;-87
2022/04/08 11:22:17;;;;;;;31.20;6.35;;;10.30;99.90;;;;;;5092721;28;20054;-87
2022/04/08 11:25:01;;;;;;;6.90;1.58;;;;;;;;;;5063798;28;20124;-86
2022/04/08 11:27:57;;;;;;;18.42;2.65;;;9.60;99.90;;;;;;5091406;28;20498;-86
2022/04/08 11:30:42;;;;;;;15.88;2.60;;;;;;;;;;5091651;28;20043;-91
2022/04/08 11:37:08;;;;;;;4.43;1.40;;;;;;;;;;5092820;28;20392;-88
2022/04/08 11:40:04;;;;;;;4.13;1.20;;;;;;;;;;5091420;28;20043;-92
2022/04/08 11:43:16;;;;;;;3.90;1.35;;;8.30;99.90;;;;;;5090979;28;20096;-91
2022/04/08 11:53:42;;;;;;;4.72;1.20;;;9.10;99.90;;;;;;5079415;28;20067;-86
2022/04/08 11:56:27;;;;;;;6.25;1.40;;;9.20;99.90;;;;;;5091005;28;20059;-87
2022/04/08 11:59:12;;;;;;;4.82;1.00;;;;;;;;;;5091158;28;20035;-87
2022/04/08 12:02:09;;;;;;;9.93;2.03;;;9.50;99.90;;;;;;5090824;28;20127;-88
2022/04/08 12:04:54;;;;;;;3.88;1.02;;;;;;;;;;5090807;28;20290;-93
2022/04/08 12:07:40;;;;;;;4.40;1.27;;;9.80;99.90;;;;;;5091080;28;20545;-90
2022/04/08 12:10:25;;;;;;;3.40;1.00;;;;;;;;;;5090676;28;20059;-91
2022/04/08 12:13:24;;;;;;;6.22;1.10;;;10.10;99.90;;;;;;5091821;28;20408;-91
2022/04/08 12:16:15;;;;;;;3.78;1.30;;;;;;;;;;5090839;28;20036;-88
2022/04/08 12:22:41;;;;;;;4.72;1.45;;;;;;;;;;5092737;28;20038;-88
2022/04/08 12:25:28;;;;;;;3.85;1.20;;;;;;;;;;5092189;28;20403;-91
2022/04/08 12:28:13;;;;;;;5.32;1.17;;;;;;;;;;5092160;28;20067;-92
2022/04/08 12:31:15;;;;;;;5.22;1.40;;;10.20;99.90;;;;;;5080747;28;20503;-89
2022/04/08 12:34:02;;;;;;;4.30;1.63;;;;;;;;;;5094715;28;20085;-88
2022/04/08 12:36:48;;;;;;;3.45;1.15;;;10.40;99.90;;;;;;5095330;28;20088;-86
2022/04/08 12:39:34;;;;;;;5.95;1.27;;;;;;;;;;5095251;28;20042;-90
2022/04/08 12:42:19;;;;;;;4.68;1.38;;;;;;;;;;5093802;28;20042;-91
2022/04/08 12:45:04;;;;;;;5.63;1.30;;;;;;;;;;5091380;28;20058;-88
2022/04/08 12:47:52;;;;;;;6.40;1.55;;;10.60;99.90;;;;;;5092696;28;20077;-90
2022/04/08 12:50:37;;;;;;;5.68;1.60;;;10.30;99.90;;;;;;5094485;28;20112;-90
2022/04/08 12:53:30;;;;;;;5.70;1.50;;;10.20;99.90;;;;;;5094212;28;20499;-89
2022/04/08 12:56:20;;;;;;;7.43;1.45;;;;;;;;;;5080741;28;20039;-89
2022/04/08 12:59:07;;;;;;;8.00;1.50;;;;;;;;;;5094888;28;20081;-90
2022/04/08 13:01:52;;;;;;;4.95;1.80;;;;;;;;;;5093581;28;20043;-89
2022/04/08 13:04:42;;;;;;;6.78;1.52;;;;;;;;;;5095009;28;20491;-89
2022/04/08 13:07:27;;;;;;;5.68;1.30;;;;;;;;;;5093723;28;20039;-87
2022/04/08 13:10:11;;;;;;;4.45;1.10;;;;;;;;;;5053565;28;20105;-88
2022/04/08 13:12:56;;;;;;;4.47;1.50;;;;;;;;;;5053370;28;20047;-91
2022/04/08 13:15:49;;;;;;;4.38;1.48;;;10.40;99.90;;;;;;5053795;28;20393;-89
2022/04/08 13:18:34;;;;;;;8.83;2.03;;;;;;;;;;5053742;28;20417;-89
2022/04/08 13:21:27;;;;;;;4.45;1.15;;;;;;;;;;5053496;28;20048;-88
2022/04/08 13:38:02;;;;;;;6.47;1.55;;;;;;;;;;5032630;28;20039;-89
2022/04/08 13:40:47;;;;;;;10.93;1.90;;;;;;;;;;5050389;28;20063;-88
2022/04/08 13:43:31;;;;;;;6.03;1.15;;;;;;;;;;5051750;28;20094;-88
2022/04/08 13:46:16;;;;;;;6.93;1.50;;;;;;;;;;5053134;28;20036;-88
2022/04/08 13:49:01;;;;;;;5.93;1.65;;;;;;;;;;5053377;28;20039;-88
2022/04/08 13:51:50;;;;;;;7.38;1.65;;;;;;;;;;5052487;28;20079;-87
2022/04/08 13:54:35;;;;;;;5.60;2.20;;;;;;;;;;5038439;28;20045;-90
2022/04/08 13:57:19;;;;;;;6.07;1.20;;;;;;;;;;5052652;28;20476;-90
2022/04/08 14:00:05;;;;;;;4.95;1.38;;;;;;;;;;5052326;28;20383;-89
2022/04/08 14:02:49;;;;;;;5.55;1.27;;;;;;;;;;5053014;28;20040;-88
2022/04/08 14:05:34;;;;;;;4.68;1.13;;;;;;;;;;5052901;28;20056;-88
2022/04/08 14:08:21;;;;;;;5.65;1.60;;;;;;;;;;5065199;28;20066;-89
2022/04/08 14:11:06;;;;;;;5.13;1.17;;;;;;;;;;5079616;28;20035;-88
2022/04/08 14:14:11;;;;;;;6.70;1.55;;;;;;;;;;5093492;28;20179;-89
2022/04/08 14:17:03;;;;;;;3.58;1.30;;;;;;;;;;5093299;28;20529;-89
2022/04/08 14:19:51;;;;;;;7.03;1.55;;;;;;;;;;5093298;28;20043;-90
2022/04/08 14:22:35;;;;;;;9.70;1.48;;;;;;;;;;5093092;28;20039;-88
2022/04/08 14:25:20;;;;;;;7.05;1.60;;;;;;;;;;5092685;28;20507;-88
2022/04/08 14:28:05;;;;;;;11.52;1.80;;;;;;;;;;5092669;28;20066;-88
2022/04/08 14:30:50;;;;;;;6.75;1.90;;;;;;;;;;5092798;28;20055;-88
2022/04/08 14:33:38;;;;;;;7.10;2.20;;;;;;;;;;5093867;28;20043;-88
2022/04/08 14:36:22;;;;;;;11.45;1.92;;;;;;;;;;5092316;28;20510;-88
2022/04/08 14:39:07;;;;;;;9.80;1.95;;;;;;;;;;5092223;28;20043;-88
2022/04/08 14:41:52;;;;;;;7.60;2.05;;;;;;;;;;5078395;28;20062;-89
2022/04/08 14:44:36;;;;;;;5.60;1.50;;;;;;;;;;5092618;28;20030;-87
2022/04/08 14:47:23;;;;;;;5.68;1.25;;;;;;;;;;5092090;28;20093;-88
2022/04/08 14:50:08;;;;;;;8.15;1.55;;;;;;;;;;5091636;28;20048;-87
2022/04/08 14:52:53;;;;;;;7.20;1.65;;;;;;;;;;5092558;28;20054;-88
2022/04/08 14:55:37;;;;;;;4.00;1.33;;;;;;;;;;5092445;28;20491;-88
2022/04/08 14:58:22;;;;;;;7.30;1.80;;;;;;;;;;5078105;28;20181;-90
2022/04/08 15:01:08;;;;;;;9.77;1.75;;;;;;;;;;5092006;28;20107;-89
2022/04/08 15:03:56;;;;;;;4.47;1.10;;;;;;;;;;5092259;28;20047;-88
2022/04/08 15:06:40;;;;;;;9.15;1.73;;;;;;;;;;5092280;28;20070;-88
2022/04/08 15:09:25;;;;;;;6.18;1.52;;;;;;;;;;5091825;28;20054;-88
2022/04/08 15:12:10;;;;;;;5.32;1.27;;;;;;;;;;5091849;28;20128;-87
2022/04/08 15:15:00;;;;;;;6.57;1.80;;;;;;;;;;5077974;28;20046;-88
2022/04/08 15:17:44;;;;;;;7.45;1.65;;;;;;;;;;5078688;28;20070;-87
2022/04/08 15:20:29;;;;;;;5.50;1.63;;;;;;;;;;5091714;28;20093;-88
2022/04/08 15:23:14;;;;;;;9.23;1.77;;;;;;;;;;5077129;28;20062;-88
2022/04/08 15:25:59;;;;;;;6.40;1.17;;;;;;;;;;5091495;28;20031;-88
2022/04/08 15:28:43;;;;;;;8.15;1.45;;;;;;;;;;5091399;28;20484;-88
2022/04/08 15:31:28;;;;;;;5.22;1.40;;;;;;;;;;5091369;28;20035;-90
2022/04/08 15:34:16;;;;;;;6.65;1.30;;;;;;;;;;5091727;28;20117;-88
2022/04/08 15:37:00;;;;;;;6.93;1.30;;;;;;;;;;5091765;28;20035;-88
2022/04/08 15:39:47;;;;;;;4.90;1.10;;;;;;;;;;5091679;28;20043;-89
2022/04/08 15:42:32;;;;;;;4.57;1.40;;;;;;;;;;5091566;28;20092;-89
2022/04/08 15:45:17;;;;;;;5.93;1.10;;;;;;;;;;5091618;28;20039;-88
2022/04/08 15:48:02;;;;;;;6.28;1.60;;;;;;;;;;5091953;28;20400;-90
2022/04/08 15:50:49;;;;;;;6.10;1.13;;;9.10;99.80;;;;;;5091737;28;20487;-87
2022/04/08 15:53:33;;;;;;;10.27;1.50;;;;;;;;;;5091466;28;20086;-88
2022/04/08 15:56:18;;;;;;;6.63;1.23;;;;;;;;;;5091353;28;20059;-90
2022/04/08 15:59:03;;;;;;;7.05;1.83;;;;;;;;;;5091975;28;20128;-91
2022/04/08 16:01:50;;;;;;;5.63;1.35;;;;;;;;;;5091876;28;20039;-90
2022/04/08 16:04:38;;;;;;;7.70;1.98;;;;;;;;;;5079907;28;20043;-88
2022/04/08 16:07:23;;;;;;;7.97;1.80;;;;;;;;;;5095537;28;20038;-88
2022/04/08 16:10:08;;;;;;;6.88;2.08;;;;;;;;;;5092001;28;20113;-90
2022/04/08 16:20:17;;;;;;;6.60;1.55;;;8.60;99.90;;;;;;5097025;28;20050;-96
2022/04/08 16:33:36;;;;;;;10.07;2.00;;;8.40;99.90;;;;;;5083105;28;20093;-87
2022/04/08 16:36:21;;;;;;;6.50;1.40;;;;;;;;;;5094495;28;20387;-87
2022/04/08 16:39:06;;;;;;;5.43;1.27;;;;;;;;;;5089537;28;20063;-87
2022/04/08 16:41:51;;;;;;;7.15;1.55;;;;;;;;;;5100460;28;20043;-87
2022/04/08 16:44:36;;;;;;;16.45;2.67;;;;;;;;;;5086056;28;20109;-86
2022/04/08 16:47:20;;;;;;;8.85;2.25;;;;;;;;;;5100203;28;20070;-87
2022/04/08 16:50:05;;;;;;;5.32;1.40;;;;;;;;;;5100484;28;20077;-87
2022/04/08 16:52:50;;;;;;;10.70;1.33;;;;;;;;;;5086870;28;20415;-87